sensor_id;sensor_type;location;lat;lon;timestamp;P1;durP1;ratioP1;P2;durP2;ratioP2
54515;SDS011;40422;45.892;4.738;2023-02-01T04:03:01;9.45;;;4.47;;
54515;SDS011;40422;45.892;4.738;2023-02-01T04:05:29;10.15;;;4.88;;
54515;SDS011;40422;45.892;4.738;2023-02-01T04:07:55;9.02;;;4.10;;
54515;SDS011;40422;45.892;4.738;2023-02-01T04:10:21;9.52;;;3.90;;
54515;SDS011;40422;45.892;4.738;2023-02-01T04:12:47;9.23;;;4.10;;
54515;SDS011;40422;45.892;4.738;2023-02-01T04:15:12;8.48;;;4.05;;
54515;SDS011;40422;45.892;4.738;2023-02-01T04:17:38;10.32;;;4.82;;
54515;SDS011;40422;45.892;4.738;2023-02-01T04:20:04;10.73;;;4.63;;
54515;SDS011;40422;45.892;4.738;2023-02-01T04:22:30;10.77;;;5.20;;
54515;SDS011;40422;45.892;4.738;2023-02-01T04:24:55;11.35;;;5.32;;
54515;SDS011;40422;45.892;4.738;2023-02-01T04:27:21;12.68;;;5.68;;
54515;SDS011;40422;45.892;4.738;2023-02-01T04:29:47;11.32;;;4.93;;
54515;SDS011;40422;45.892;4.738;2023-02-01T04:32:14;11.10;;;5.75;;
54515;SDS011;40422;45.892;4.738;2023-02-01T04:34:40;11.20;;;4.95;;
54515;SDS011;40422;45.892;4.738;2023-02-01T04:37:06;11.07;;;4.55;;
54515;SDS011;40422;45.892;4.738;2023-02-01T04:39:32;10.65;;;4.70;;
54515;SDS011;40422;45.892;4.738;2023-02-01T04:41:58;11.38;;;4.45;;
54515;SDS011;40422;45.892;4.738;2023-02-01T04:44:24;11.63;;;5.25;;
54515;SDS011;40422;45.892;4.738;2023-02-01T04:46:49;10.80;;;4.97;;
54515;SDS011;40422;45.892;4.738;2023-02-01T04:49:15;12.77;;;5.60;;
54515;SDS011;40422;45.892;4.738;2023-02-01T04:51:41;10.23;;;4.85;;
54515;SDS011;40422;45.892;4.738;2023-02-01T04:54:07;10.15;;;4.88;;
54515;SDS011;40422;45.892;4.738;2023-02-01T04:56:33;9.18;;;4.57;;
54515;SDS011;40422;45.892;4.738;2023-02-01T04:59:01;11.23;;;5.13;;
54515;SDS011;40422;45.892;4.738;2023-02-01T05:01:27;9.82;;;4.78;;
54515;SDS011;40422;45.892;4.738;2023-02-01T05:03:53;9.07;;;4.75;;
54515;SDS011;40422;45.892;4.738;2023-02-01T05:06:19;13.70;;;4.90;;
54515;SDS011;40422;45.892;4.738;2023-02-01T05:08:44;10.38;;;4.72;;
54515;SDS011;40422;45.892;4.738;2023-02-01T05:11:10;9.70;;;4.55;;
54515;SDS011;40422;45.892;4.738;2023-02-01T05:13:54;8.43;;;4.03;;
54515;SDS011;40422;45.892;4.738;2023-02-01T05:16:20;9.98;;;5.63;;
54515;SDS011;40422;45.892;4.738;2023-02-01T05:18:45;10.45;;;4.85;;
54515;SDS011;40422;45.892;4.738;2023-02-01T05:21:11;11.55;;;5.90;;
54515;SDS011;40422;45.892;4.738;2023-02-01T05:23:37;10.15;;;4.63;;
54515;SDS011;40422;45.892;4.738;2023-02-01T05:26:22;12.70;;;5.50;;
54515;SDS011;40422;45.892;4.738;2023-02-01T05:28:48;10.32;;;5.10;;
54515;SDS011;40422;45.892;4.738;2023-02-01T05:31:14;11.68;;;4.80;;
54515;SDS011;40422;45.892;4.738;2023-02-01T05:33:39;11.75;;;5.85;;
54515;SDS011;40422;45.892;4.738;2023-02-01T05:36:05;10.55;;;5.00;;
54515;SDS011;40422;45.892;4.738;2023-02-01T05:38:31;10.88;;;5.00;;
54515;SDS011;40422;45.892;4.738;2023-02-01T05:40:57;12.65;;;5.78;;
54515;SDS011;40422;45.892;4.738;2023-02-01T05:43:22;15.00;;;6.50;;
54515;SDS011;40422;45.892;4.738;2023-02-01T05:45:48;11.77;;;6.50;;
54515;SDS011;40422;45.892;4.738;2023-02-01T05:48:14;9.40;;;5.38;;
54515;SDS011;40422;45.892;4.738;2023-02-01T05:50:39;11.95;;;5.85;;
54515;SDS011;40422;45.892;4.738;2023-02-01T05:53:05;12.85;;;5.15;;
54515;SDS011;40422;45.892;4.738;2023-02-01T05:55:31;10.85;;;5.25;;
54515;SDS011;40422;45.892;4.738;2023-02-01T05:57:57;12.57;;;5.50;;
54515;SDS011;40422;45.892;4.738;2023-02-01T06:00:23;11.57;;;5.45;;
54515;SDS011;40422;45.892;4.738;2023-02-01T06:02:48;12.30;;;5.80;;
54515;SDS011;40422;45.892;4.738;2023-02-01T06:05:14;12.50;;;6.30;;
54515;SDS011;40422;45.892;4.738;2023-02-01T06:07:40;11.13;;;5.50;;
54515;SDS011;40422;45.892;4.738;2023-02-01T06:10:05;12.00;;;5.65;;
54515;SDS011;40422;45.892;4.738;2023-02-01T06:12:31;12.38;;;5.65;;
54515;SDS011;40422;45.892;4.738;2023-02-01T06:14:57;13.85;;;6.00;;
54515;SDS011;40422;45.892;4.738;2023-02-01T06:17:24;11.05;;;5.72;;
54515;SDS011;40422;45.892;4.738;2023-02-01T06:19:50;11.18;;;5.80;;
54515;SDS011;40422;45.892;4.738;2023-02-01T06:22:15;10.98;;;5.35;;
54515;SDS011;40422;45.892;4.738;2023-02-01T06:24:41;9.65;;;5.20;;
54515;SDS011;40422;45.892;4.738;2023-02-01T06:27:07;11.20;;;5.47;;
54515;SDS011;40422;45.892;4.738;2023-02-01T06:29:34;11.45;;;5.45;;
54515;SDS011;40422;45.892;4.738;2023-02-01T06:32:00;12.73;;;5.78;;
54515;SDS011;40422;45.892;4.738;2023-02-01T06:34:26;9.60;;;4.78;;
54515;SDS011;40422;45.892;4.738;2023-02-01T06:36:51;10.98;;;5.35;;
54515;SDS011;40422;45.892;4.738;2023-02-01T06:39:17;11.10;;;5.72;;
54515;SDS011;40422;45.892;4.738;2023-02-01T06:41:45;11.68;;;5.05;;
54515;SDS011;40422;45.892;4.738;2023-02-01T06:44:12;11.68;;;6.05;;
54515;SDS011;40422;45.892;4.738;2023-02-01T06:46:38;15.10;;;6.20;;
54515;SDS011;40422;45.892;4.738;2023-02-01T06:49:03;14.98;;;7.13;;
54515;SDS011;40422;45.892;4.738;2023-02-01T06:51:29;15.43;;;7.38;;
54515;SDS011;40422;45.892;4.738;2023-02-01T06:53:55;12.68;;;5.90;;
54515;SDS011;40422;45.892;4.738;2023-02-01T06:56:21;12.95;;;6.28;;
54515;SDS011;40422;45.892;4.738;2023-02-01T06:58:47;13.13;;;6.47;;
54515;SDS011;40422;45.892;4.738;2023-02-01T07:01:14;14.23;;;6.05;;
54515;SDS011;40422;45.892;4.738;2023-02-01T07:03:40;14.82;;;6.93;;
54515;SDS011;40422;45.892;4.738;2023-02-01T07:06:06;14.45;;;6.38;;
54515;SDS011;40422;45.892;4.738;2023-02-01T07:08:32;14.38;;;6.47;;
54515;SDS011;40422;45.892;4.738;2023-02-01T07:11:04;13.27;;;6.28;;
54515;SDS011;40422;45.892;4.738;2023-02-01T07:13:33;15.20;;;6.20;;
54515;SDS011;40422;45.892;4.738;2023-02-01T07:16:02;12.82;;;5.93;;
54515;SDS011;40422;45.892;4.738;2023-02-01T07:18:30;14.38;;;6.00;;
54515;SDS011;40422;45.892;4.738;2023-02-01T07:20:56;11.68;;;5.78;;
54515;SDS011;40422;45.892;4.738;2023-02-01T07:23:22;13.55;;;6.05;;
54515;SDS011;40422;45.892;4.738;2023-02-01T07:25:48;11.82;;;5.63;;
54515;SDS011;40422;45.892;4.738;2023-02-01T07:28:18;13.90;;;6.40;;
54515;SDS011;40422;45.892;4.738;2023-02-01T07:30:43;10.73;;;5.00;;
54515;SDS011;40422;45.892;4.738;2023-02-01T07:33:15;10.82;;;5.13;;
54515;SDS011;40422;45.892;4.738;2023-02-01T07:35:48;12.57;;;5.70;;
54515;SDS011;40422;45.892;4.738;2023-02-01T07:38:14;11.52;;;5.82;;
54515;SDS011;40422;45.892;4.738;2023-02-01T07:40:40;12.30;;;6.00;;
54515;SDS011;40422;45.892;4.738;2023-02-01T07:43:06;11.50;;;5.53;;
54515;SDS011;40422;45.892;4.738;2023-02-01T07:45:33;11.43;;;4.90;;
54515;SDS011;40422;45.892;4.738;2023-02-01T07:47:59;14.07;;;5.32;;
54515;SDS011;40422;45.892;4.738;2023-02-01T07:50:25;9.55;;;4.93;;
54515;SDS011;40422;45.892;4.738;2023-02-01T07:52:50;11.43;;;4.90;;
54515;SDS011;40422;45.892;4.738;2023-02-01T07:55:18;10.40;;;4.60;;
54515;SDS011;40422;45.892;4.738;2023-02-01T07:57:44;12.60;;;4.97;;
54515;SDS011;40422;45.892;4.738;2023-02-01T08:00:10;13.50;;;5.70;;
54515;SDS011;40422;45.892;4.738;2023-02-01T08:02:54;12.48;;;5.00;;
54515;SDS011;40422;45.892;4.738;2023-02-01T08:05:23;10.65;;;4.78;;
54515;SDS011;40422;45.892;4.738;2023-02-01T08:07:49;12.00;;;4.70;;
54515;SDS011;40422;45.892;4.738;2023-02-01T08:10:15;9.70;;;4.30;;
54515;SDS011;40422;45.892;4.738;2023-02-01T08:12:41;11.20;;;4.88;;
54515;SDS011;40422;45.892;4.738;2023-02-01T08:15:07;9.20;;;4.38;;
54515;SDS011;40422;45.892;4.738;2023-02-01T08:17:33;10.73;;;3.63;;
54515;SDS011;40422;45.892;4.738;2023-02-01T08:19:58;11.35;;;5.15;;
54515;SDS011;40422;45.892;4.738;2023-02-01T08:22:24;13.57;;;5.28;;
54515;SDS011;40422;45.892;4.738;2023-02-01T08:24:50;13.95;;;5.03;;
54515;SDS011;40422;45.892;4.738;2023-02-01T08:27:16;10.68;;;4.85;;
54515;SDS011;40422;45.892;4.738;2023-02-01T08:29:42;11.60;;;3.38;;
54515;SDS011;40422;45.892;4.738;2023-02-01T08:32:07;10.43;;;3.50;;
54515;SDS011;40422;45.892;4.738;2023-02-01T08:34:34;9.40;;;4.25;;
54515;SDS011;40422;45.892;4.738;2023-02-01T08:36:59;11.25;;;3.65;;
54515;SDS011;40422;45.892;4.738;2023-02-01T08:39:25;10.45;;;3.45;;
54515;SDS011;40422;45.892;4.738;2023-02-01T08:41:51;8.32;;;3.60;;
54515;SDS011;40422;45.892;4.738;2023-02-01T08:44:35;15.70;;;6.27;;
54515;SDS011;40422;45.892;4.738;2023-02-01T08:47:02;18.85;;;5.75;;
54515;SDS011;40422;45.892;4.738;2023-02-01T08:49:28;9.82;;;3.35;;
54515;SDS011;40422;45.892;4.738;2023-02-01T08:51:54;6.70;;;2.20;;
54515;SDS011;40422;45.892;4.738;2023-02-01T08:54:20;5.70;;;1.90;;
54515;SDS011;40422;45.892;4.738;2023-02-01T08:56:47;5.93;;;1.80;;
54515;SDS011;40422;45.892;4.738;2023-02-01T08:59:13;5.68;;;1.80;;
54515;SDS011;40422;45.892;4.738;2023-02-01T09:01:38;4.22;;;1.70;;
54515;SDS011;40422;45.892;4.738;2023-02-01T09:04:04;4.45;;;1.52;;
54515;SDS011;40422;45.892;4.738;2023-02-01T09:06:29;4.22;;;1.73;;
54515;SDS011;40422;45.892;4.738;2023-02-01T09:08:55;8.18;;;3.10;;
54515;SDS011;40422;45.892;4.738;2023-02-01T09:11:21;8.23;;;2.85;;
54515;SDS011;40422;45.892;4.738;2023-02-01T09:13:47;9.82;;;3.40;;
54515;SDS011;40422;45.892;4.738;2023-02-01T09:16:13;11.10;;;4.00;;
54515;SDS011;40422;45.892;4.738;2023-02-01T09:18:39;8.80;;;3.85;;
54515;SDS011;40422;45.892;4.738;2023-02-01T09:21:08;10.50;;;3.67;;
54515;SDS011;40422;45.892;4.738;2023-02-01T09:23:34;9.55;;;3.35;;
54515;SDS011;40422;45.892;4.738;2023-02-01T09:26:03;8.30;;;3.03;;
54515;SDS011;40422;45.892;4.738;2023-02-01T09:28:30;10.45;;;3.20;;
54515;SDS011;40422;45.892;4.738;2023-02-01T09:30:59;8.25;;;3.28;;
54515;SDS011;40422;45.892;4.738;2023-02-01T09:33:26;8.02;;;3.15;;
54515;SDS011;40422;45.892;4.738;2023-02-01T09:35:56;9.55;;;3.03;;
54515;SDS011;40422;45.892;4.738;2023-02-01T09:38:23;6.75;;;2.78;;
54515;SDS011;40422;45.892;4.738;2023-02-01T09:40:50;7.57;;;2.92;;
54515;SDS011;40422;45.892;4.738;2023-02-01T09:43:21;10.77;;;3.00;;
54515;SDS011;40422;45.892;4.738;2023-02-01T09:48:29;6.85;;;2.58;;
54515;SDS011;40422;45.892;4.738;2023-02-01T09:50:58;5.43;;;2.25;;
54515;SDS011;40422;45.892;4.738;2023-02-01T09:53:43;7.20;;;2.90;;
54515;SDS011;40422;45.892;4.738;2023-02-01T09:56:14;12.52;;;3.65;;
54515;SDS011;40422;45.892;4.738;2023-02-01T09:58:56;7.32;;;2.92;;
54515;SDS011;40422;45.892;4.738;2023-02-01T10:01:27;10.52;;;3.28;;
54515;SDS011;40422;45.892;4.738;2023-02-01T10:03:59;8.40;;;3.30;;
54515;SDS011;40422;45.892;4.738;2023-02-01T10:11:55;6.20;;;2.90;;
54515;SDS011;40422;45.892;4.738;2023-02-01T10:22:44;6.00;;;2.80;;
54515;SDS011;40422;45.892;4.738;2023-02-01T10:27:48;7.68;;;2.83;;
54515;SDS011;40422;45.892;4.738;2023-02-01T10:30:24;6.82;;;2.80;;
54515;SDS011;40422;45.892;4.738;2023-02-01T10:32:55;7.15;;;2.80;;
54515;SDS011;40422;45.892;4.738;2023-02-01T10:35:28;8.65;;;2.97;;
54515;SDS011;40422;45.892;4.738;2023-02-01T10:38:01;6.55;;;2.78;;
54515;SDS011;40422;45.892;4.738;2023-02-01T10:40:30;7.32;;;2.40;;
54515;SDS011;40422;45.892;4.738;2023-02-01T10:43:00;8.68;;;2.88;;
54515;SDS011;40422;45.892;4.738;2023-02-01T10:45:28;6.72;;;2.58;;
54515;SDS011;40422;45.892;4.738;2023-02-01T10:47:56;9.80;;;2.80;;
54515;SDS011;40422;45.892;4.738;2023-02-01T10:50:34;6.90;;;2.75;;
54515;SDS011;40422;45.892;4.738;2023-02-01T10:58:20;7.25;;;2.78;;
54515;SDS011;40422;45.892;4.738;2023-02-01T11:03:40;6.38;;;2.60;;
54515;SDS011;40422;45.892;4.738;2023-02-01T11:08:41;7.38;;;2.45;;
54515;SDS011;40422;45.892;4.738;2023-02-01T11:11:10;6.05;;;2.58;;
54515;SDS011;40422;45.892;4.738;2023-02-01T11:13:37;7.28;;;2.90;;
54515;SDS011;40422;45.892;4.738;2023-02-01T11:16:04;6.47;;;2.70;;
54515;SDS011;40422;45.892;4.738;2023-02-01T11:18:32;6.70;;;2.42;;
54515;SDS011;40422;45.892;4.738;2023-02-01T11:21:01;7.55;;;2.75;;
54515;SDS011;40422;45.892;4.738;2023-02-01T11:23:28;7.15;;;2.75;;
54515;SDS011;40422;45.892;4.738;2023-02-01T11:25:56;6.65;;;2.30;;
54515;SDS011;40422;45.892;4.738;2023-02-01T11:28:25;6.38;;;2.28;;
54515;SDS011;40422;45.892;4.738;2023-02-01T11:30:59;8.65;;;2.95;;
54515;SDS011;40422;45.892;4.738;2023-02-01T11:33:32;5.15;;;2.10;;
54515;SDS011;40422;45.892;4.738;2023-02-01T11:36:05;8.52;;;2.33;;
54515;SDS011;40422;45.892;4.738;2023-02-01T11:38:36;8.00;;;2.85;;
54515;SDS011;40422;45.892;4.738;2023-02-01T11:41:11;6.32;;;2.13;;
54515;SDS011;40422;45.892;4.738;2023-02-01T11:43:50;6.43;;;2.28;;
54515;SDS011;40422;45.892;4.738;2023-02-01T11:46:18;4.40;;;1.88;;
54515;SDS011;40422;45.892;4.738;2023-02-01T11:48:50;5.05;;;2.00;;
54515;SDS011;40422;45.892;4.738;2023-02-01T12:02:15;5.53;;;2.25;;
54515;SDS011;40422;45.892;4.738;2023-02-01T12:05:10;4.65;;;2.08;;
54515;SDS011;40422;45.892;4.738;2023-02-01T12:35:14;5.60;;;1.77;;
54515;SDS011;40422;45.892;4.738;2023-02-01T12:40:39;5.22;;;1.98;;
54515;SDS011;40422;45.892;4.738;2023-02-01T12:45:58;5.28;;;1.88;;
54515;SDS011;40422;45.892;4.738;2023-02-01T12:48:33;4.70;;;2.20;;
54515;SDS011;40422;45.892;4.738;2023-02-01T12:51:07;8.13;;;2.15;;
54515;SDS011;40422;45.892;4.738;2023-02-01T12:56:21;5.95;;;2.28;;
54515;SDS011;40422;45.892;4.738;2023-02-01T12:58:52;8.93;;;2.25;;
54515;SDS011;40422;45.892;4.738;2023-02-01T13:04:17;2.30;;;1.40;;
54515;SDS011;40422;45.892;4.738;2023-02-01T13:06:52;3.88;;;1.50;;
54515;SDS011;40422;45.892;4.738;2023-02-01T13:09:41;2.83;;;1.40;;
54515;SDS011;40422;45.892;4.738;2023-02-01T13:12:16;3.17;;;1.23;;
54515;SDS011;40422;45.892;4.738;2023-02-01T13:14:57;2.15;;;1.30;;
54515;SDS011;40422;45.892;4.738;2023-02-01T13:17:34;3.45;;;1.30;;
54515;SDS011;40422;45.892;4.738;2023-02-01T13:20:18;2.85;;;1.25;;
54515;SDS011;40422;45.892;4.738;2023-02-01T13:23:02;3.83;;;1.33;;
54515;SDS011;40422;45.892;4.738;2023-02-01T13:25:44;5.47;;;1.58;;
54515;SDS011;40422;45.892;4.738;2023-02-01T13:28:16;3.97;;;1.63;;
54515;SDS011;40422;45.892;4.738;2023-02-01T13:33:26;5.10;;;1.67;;
54515;SDS011;40422;45.892;4.738;2023-02-01T13:44:11;5.45;;;1.40;;
54515;SDS011;40422;45.892;4.738;2023-02-01T13:46:42;6.07;;;1.95;;
54515;SDS011;40422;45.892;4.738;2023-02-01T13:49:18;5.25;;;2.30;;
54515;SDS011;40422;45.892;4.738;2023-02-01T13:51:47;2.83;;;1.50;;
54515;SDS011;40422;45.892;4.738;2023-02-01T13:57:04;5.70;;;1.98;;
54515;SDS011;40422;45.892;4.738;2023-02-01T14:05:02;7.05;;;2.00;;
54515;SDS011;40422;45.892;4.738;2023-02-01T14:07:29;3.80;;;1.77;;
54515;SDS011;40422;45.892;4.738;2023-02-01T14:09:55;5.75;;;1.70;;
54515;SDS011;40422;45.892;4.738;2023-02-01T14:15:25;5.30;;;1.90;;
54515;SDS011;40422;45.892;4.738;2023-02-01T14:17:52;6.82;;;2.25;;
54515;SDS011;40422;45.892;4.738;2023-02-01T14:20:39;7.43;;;2.17;;
54515;SDS011;40422;45.892;4.738;2023-02-01T14:23:11;4.93;;;1.92;;
54515;SDS011;40422;45.892;4.738;2023-02-01T14:25:41;4.90;;;2.08;;
54515;SDS011;40422;45.892;4.738;2023-02-01T14:28:12;6.18;;;1.90;;
54515;SDS011;40422;45.892;4.738;2023-02-01T14:30:49;5.03;;;1.67;;
54515;SDS011;40422;45.892;4.738;2023-02-01T14:33:19;3.65;;;1.40;;
54515;SDS011;40422;45.892;4.738;2023-02-01T14:36:01;6.88;;;1.88;;
54515;SDS011;40422;45.892;4.738;2023-02-01T14:38:31;5.63;;;1.90;;
54515;SDS011;40422;45.892;4.738;2023-02-01T14:41:12;5.18;;;1.85;;
54515;SDS011;40422;45.892;4.738;2023-02-01T14:49:30;7.45;;;2.05;;
54515;SDS011;40422;45.892;4.738;2023-02-01T14:51:58;3.85;;;1.60;;
54515;SDS011;40422;45.892;4.738;2023-02-01T14:54:25;4.32;;;1.80;;
54515;SDS011;40422;45.892;4.738;2023-02-01T14:56:52;4.95;;;1.80;;
54515;SDS011;40422;45.892;4.738;2023-02-01T14:59:20;4.45;;;1.70;;
54515;SDS011;40422;45.892;4.738;2023-02-01T15:01:51;13.35;;;2.53;;
54515;SDS011;40422;45.892;4.738;2023-02-01T15:04:22;4.55;;;1.77;;
54515;SDS011;40422;45.892;4.738;2023-02-01T15:06:52;5.65;;;1.65;;
54515;SDS011;40422;45.892;4.738;2023-02-01T15:09:31;7.55;;;1.52;;
54515;SDS011;40422;45.892;4.738;2023-02-01T15:17:22;5.30;;;1.67;;
54515;SDS011;40422;45.892;4.738;2023-02-01T15:22:24;6.75;;;1.77;;
54515;SDS011;40422;45.892;4.738;2023-02-01T15:24:53;2.80;;;1.30;;
54515;SDS011;40422;45.892;4.738;2023-02-01T15:27:25;6.07;;;1.85;;
54515;SDS011;40422;45.892;4.738;2023-02-01T15:29:52;4.50;;;1.63;;
54515;SDS011;40422;45.892;4.738;2023-02-01T15:34:57;6.30;;;1.75;;
54515;SDS011;40422;45.892;4.738;2023-02-01T15:37:23;6.03;;;2.10;;
54515;SDS011;40422;45.892;4.738;2023-02-01T15:42:37;7.28;;;2.33;;
54515;SDS011;40422;45.892;4.738;2023-02-01T15:45:18;8.98;;;1.90;;
54515;SDS011;40422;45.892;4.738;2023-02-01T15:47:48;7.80;;;2.42;;
54515;SDS011;40422;45.892;4.738;2023-02-01T15:50:17;7.00;;;2.05;;
54515;SDS011;40422;45.892;4.738;2023-02-01T15:52:45;8.05;;;1.90;;
54515;SDS011;40422;45.892;4.738;2023-02-01T15:58:05;7.47;;;2.28;;
54515;SDS011;40422;45.892;4.738;2023-02-01T16:00:35;11.50;;;3.05;;
54515;SDS011;40422;45.892;4.738;2023-02-01T16:03:23;7.72;;;2.78;;
54515;SDS011;40422;45.892;4.738;2023-02-01T16:05:56;10.43;;;2.90;;
54515;SDS011;40422;45.892;4.738;2023-02-01T16:08:25;11.20;;;2.40;;
54515;SDS011;40422;45.892;4.738;2023-02-01T16:10:59;6.53;;;2.30;;
54515;SDS011;40422;45.892;4.738;2023-02-01T16:13:34;8.35;;;2.40;;
54515;SDS011;40422;45.892;4.738;2023-02-01T16:16:00;9.93;;;2.30;;
54515;SDS011;40422;45.892;4.738;2023-02-01T16:18:27;8.40;;;2.60;;
54515;SDS011;40422;45.892;4.738;2023-02-01T16:20:53;9.23;;;3.38;;
54515;SDS011;40422;45.892;4.738;2023-02-01T16:23:19;11.40;;;4.03;;
54515;SDS011;40422;45.892;4.738;2023-02-01T16:25:49;19.15;;;4.57;;
54515;SDS011;40422;45.892;4.738;2023-02-01T16:28:17;10.70;;;3.58;;
54515;SDS011;40422;45.892;4.738;2023-02-01T16:30:43;9.82;;;3.28;;
54515;SDS011;40422;45.892;4.738;2023-02-01T16:33:11;13.25;;;3.30;;
54515;SDS011;40422;45.892;4.738;2023-02-01T16:35:40;11.65;;;3.03;;
54515;SDS011;40422;45.892;4.738;2023-02-01T16:38:10;10.30;;;3.15;;
54515;SDS011;40422;45.892;4.738;2023-02-01T16:40:38;7.82;;;2.67;;
54515;SDS011;40422;45.892;4.738;2023-02-01T16:43:10;8.00;;;2.38;;
54515;SDS011;40422;45.892;4.738;2023-02-01T16:45:44;10.75;;;3.03;;
54515;SDS011;40422;45.892;4.738;2023-02-01T16:50:52;11.98;;;3.10;;
54515;SDS011;40422;45.892;4.738;2023-02-01T16:53:20;8.05;;;2.63;;
54515;SDS011;40422;45.892;4.738;2023-02-01T16:55:46;11.32;;;2.30;;
54515;SDS011;40422;45.892;4.738;2023-02-01T16:58:14;7.35;;;2.10;;
54515;SDS011;40422;45.892;4.738;2023-02-01T17:00:41;9.68;;;2.40;;
54515;SDS011;40422;45.892;4.738;2023-02-01T17:03:09;11.38;;;2.83;;
54515;SDS011;40422;45.892;4.738;2023-02-01T17:05:41;10.20;;;2.83;;
54515;SDS011;40422;45.892;4.738;2023-02-01T17:08:11;9.98;;;3.00;;
54515;SDS011;40422;45.892;4.738;2023-02-01T17:10:39;10.07;;;2.65;;
54515;SDS011;40422;45.892;4.738;2023-02-01T17:13:07;10.15;;;2.60;;
54515;SDS011;40422;45.892;4.738;2023-02-01T17:15:37;10.98;;;2.88;;
54515;SDS011;40422;45.892;4.738;2023-02-01T17:18:03;8.65;;;2.42;;
54515;SDS011;40422;45.892;4.738;2023-02-01T17:20:30;10.23;;;2.45;;
54515;SDS011;40422;45.892;4.738;2023-02-01T17:22:56;6.88;;;2.33;;
54515;SDS011;40422;45.892;4.738;2023-02-01T17:25:23;9.50;;;2.47;;
54515;SDS011;40422;45.892;4.738;2023-02-01T17:27:55;10.15;;;2.10;;
54515;SDS011;40422;45.892;4.738;2023-02-01T17:30:21;7.18;;;2.28;;
54515;SDS011;40422;45.892;4.738;2023-02-01T17:32:46;6.85;;;2.30;;
54515;SDS011;40422;45.892;4.738;2023-02-01T17:35:17;7.25;;;2.00;;
54515;SDS011;40422;45.892;4.738;2023-02-01T17:37:45;9.50;;;2.42;;
54515;SDS011;40422;45.892;4.738;2023-02-01T17:40:12;9.27;;;2.15;;
54515;SDS011;40422;45.892;4.738;2023-02-01T17:42:37;10.95;;;2.72;;
54515;SDS011;40422;45.892;4.738;2023-02-01T17:47:57;6.77;;;2.07;;
54515;SDS011;40422;45.892;4.738;2023-02-01T17:50:23;7.72;;;2.22;;
54515;SDS011;40422;45.892;4.738;2023-02-01T17:52:52;7.20;;;2.42;;
54515;SDS011;40422;45.892;4.738;2023-02-01T17:55:18;9.45;;;2.30;;
54515;SDS011;40422;45.892;4.738;2023-02-01T17:57:47;10.02;;;2.53;;
54515;SDS011;40422;45.892;4.738;2023-02-01T18:00:13;7.75;;;2.03;;
54515;SDS011;40422;45.892;4.738;2023-02-01T18:02:39;9.35;;;2.08;;
54515;SDS011;40422;45.892;4.738;2023-02-01T18:05:23;9.27;;;2.10;;
54515;SDS011;40422;45.892;4.738;2023-02-01T18:07:52;8.65;;;2.50;;
54515;SDS011;40422;45.892;4.738;2023-02-01T18:10:17;9.45;;;2.25;;
54515;SDS011;40422;45.892;4.738;2023-02-01T18:12:43;8.48;;;2.60;;
54515;SDS011;40422;45.892;4.738;2023-02-01T18:15:17;7.50;;;2.30;;
54515;SDS011;40422;45.892;4.738;2023-02-01T18:17:45;4.30;;;1.33;;
54515;SDS011;40422;45.892;4.738;2023-02-01T18:20:14;6.10;;;1.80;;
54515;SDS011;40422;45.892;4.738;2023-02-01T18:22:42;5.22;;;1.70;;
54515;SDS011;40422;45.892;4.738;2023-02-01T18:25:14;5.75;;;1.73;;
54515;SDS011;40422;45.892;4.738;2023-02-01T18:27:45;4.80;;;1.67;;
54515;SDS011;40422;45.892;4.738;2023-02-01T18:30:12;5.43;;;1.73;;
54515;SDS011;40422;45.892;4.738;2023-02-01T18:32:37;8.70;;;2.20;;
54515;SDS011;40422;45.892;4.738;2023-02-01T18:35:18;9.07;;;2.65;;
54515;SDS011;40422;45.892;4.738;2023-02-01T18:37:45;9.43;;;2.58;;
54515;SDS011;40422;45.892;4.738;2023-02-01T18:40:17;6.72;;;2.30;;
54515;SDS011;40422;45.892;4.738;2023-02-01T18:42:44;7.82;;;2.42;;
54515;SDS011;40422;45.892;4.738;2023-02-01T18:45:18;7.53;;;2.05;;
54515;SDS011;40422;45.892;4.738;2023-02-01T18:47:46;9.15;;;2.28;;
54515;SDS011;40422;45.892;4.738;2023-02-01T18:50:12;7.80;;;2.08;;
54515;SDS011;40422;45.892;4.738;2023-02-01T18:52:38;7.32;;;2.38;;
54515;SDS011;40422;45.892;4.738;2023-02-01T18:55:04;11.85;;;2.17;;
54515;SDS011;40422;45.892;4.738;2023-02-01T18:57:30;9.27;;;2.40;;
54515;SDS011;40422;45.892;4.738;2023-02-01T18:59:57;6.97;;;2.10;;
54515;SDS011;40422;45.892;4.738;2023-02-01T19:02:23;7.68;;;1.83;;
54515;SDS011;40422;45.892;4.738;2023-02-01T19:04:48;7.47;;;2.08;;
54515;SDS011;40422;45.892;4.738;2023-02-01T19:07:14;9.40;;;2.47;;
54515;SDS011;40422;45.892;4.738;2023-02-01T19:09:39;9.73;;;2.55;;
54515;SDS011;40422;45.892;4.738;2023-02-01T19:12:05;5.65;;;1.90;;
54515;SDS011;40422;45.892;4.738;2023-02-01T19:14:31;8.57;;;2.58;;
54515;SDS011;40422;45.892;4.738;2023-02-01T19:16:56;6.72;;;2.28;;
54515;SDS011;40422;45.892;4.738;2023-02-01T19:19:22;6.40;;;2.08;;
54515;SDS011;40422;45.892;4.738;2023-02-01T19:21:48;8.80;;;1.92;;
54515;SDS011;40422;45.892;4.738;2023-02-01T19:24:15;6.63;;;2.10;;
54515;SDS011;40422;45.892;4.738;2023-02-01T19:26:40;8.35;;;2.58;;
54515;SDS011;40422;45.892;4.738;2023-02-01T19:29:07;7.25;;;2.67;;
54515;SDS011;40422;45.892;4.738;2023-02-01T19:31:34;9.52;;;3.05;;
54515;SDS011;40422;45.892;4.738;2023-02-01T19:33:59;10.88;;;3.63;;
54515;SDS011;40422;45.892;4.738;2023-02-01T19:36:25;10.68;;;4.57;;
54515;SDS011;40422;45.892;4.738;2023-02-01T19:38:51;11.60;;;4.63;;
54515;SDS011;40422;45.892;4.738;2023-02-01T19:41:17;13.23;;;4.97;;
54515;SDS011;40422;45.892;4.738;2023-02-01T19:43:44;13.23;;;5.57;;
54515;SDS011;40422;45.892;4.738;2023-02-01T19:46:10;10.50;;;4.05;;
54515;SDS011;40422;45.892;4.738;2023-02-01T19:48:35;11.45;;;3.63;;
54515;SDS011;40422;45.892;4.738;2023-02-01T19:51:01;10.48;;;3.03;;
54515;SDS011;40422;45.892;4.738;2023-02-01T19:53:28;7.38;;;3.38;;
54515;SDS011;40422;45.892;4.738;2023-02-01T19:55:55;7.85;;;2.72;;
54515;SDS011;40422;45.892;4.738;2023-02-01T19:58:22;8.00;;;2.67;;
54515;SDS011;40422;45.892;4.738;2023-02-01T20:00:51;8.65;;;2.63;;
54515;SDS011;40422;45.892;4.738;2023-02-01T20:03:19;7.93;;;2.53;;
54515;SDS011;40422;45.892;4.738;2023-02-01T20:05:44;7.72;;;2.58;;
54515;SDS011;40422;45.892;4.738;2023-02-01T20:08:10;9.95;;;2.80;;
54515;SDS011;40422;45.892;4.738;2023-02-01T20:10:35;7.50;;;2.33;;
54515;SDS011;40422;45.892;4.738;2023-02-01T20:13:08;10.30;;;2.92;;
54515;SDS011;40422;45.892;4.738;2023-02-01T20:15:34;6.30;;;2.45;;
54515;SDS011;40422;45.892;4.738;2023-02-01T20:18:00;7.25;;;2.58;;
54515;SDS011;40422;45.892;4.738;2023-02-01T20:20:26;8.48;;;2.47;;
54515;SDS011;40422;45.892;4.738;2023-02-01T20:22:53;11.40;;;2.92;;
54515;SDS011;40422;45.892;4.738;2023-02-01T20:25:19;8.98;;;2.50;;
54515;SDS011;40422;45.892;4.738;2023-02-01T20:27:44;9.52;;;2.45;;
54515;SDS011;40422;45.892;4.738;2023-02-01T20:30:10;7.43;;;2.08;;
54515;SDS011;40422;45.892;4.738;2023-02-01T20:32:38;8.45;;;2.60;;
54515;SDS011;40422;45.892;4.738;2023-02-01T20:35:04;9.35;;;3.00;;
54515;SDS011;40422;45.892;4.738;2023-02-01T20:37:30;11.13;;;3.50;;
54515;SDS011;40422;45.892;4.738;2023-02-01T20:39:56;10.48;;;2.97;;
54515;SDS011;40422;45.892;4.738;2023-02-01T20:42:21;8.32;;;2.95;;
54515;SDS011;40422;45.892;4.738;2023-02-01T20:44:47;12.18;;;2.88;;
54515;SDS011;40422;45.892;4.738;2023-02-01T20:47:13;9.82;;;3.08;;
54515;SDS011;40422;45.892;4.738;2023-02-01T20:49:38;10.45;;;3.30;;
54515;SDS011;40422;45.892;4.738;2023-02-01T20:52:04;10.40;;;3.22;;
54515;SDS011;40422;45.892;4.738;2023-02-01T20:54:30;8.38;;;3.30;;
54515;SDS011;40422;45.892;4.738;2023-02-01T20:56:56;9.43;;;3.58;;
54515;SDS011;40422;45.892;4.738;2023-02-01T20:59:21;8.45;;;2.80;;
